Time;durP1;ratioP1;P1;durP2;ratioP2;P2;SDS_P1;SDS_P2;PMS_P1;PMS_P2;Temp;Humidity;BMP_temperature;BMP_pressure;BME280_temperature;BME280_humidity;BME280_pressure;Samples;Min_cycle;Max_cycle;Signal;HPM_P1;HPM_P2
2023/11/16 00:00:42;;;;;;;3.03;2.93;;;7.20;99.90;;;;;;4969776;28;20301;-59
2023/11/16 00:03:12;;;;;;;2.63;2.43;;;7.30;99.90;;;;;;4972988;28;20258;-58
2023/11/16 00:05:38;;;;;;;2.90;2.70;;;7.20;99.90;;;;;;4974233;28;20211;-59
2023/11/16 00:08:07;;;;;;;3.50;2.97;;;7.30;99.90;;;;;;4971740;28;20768;-59
2023/11/16 00:10:35;;;;;;;3.33;2.90;;;7.20;99.90;;;;;;4968921;28;20593;-59
2023/11/16 00:13:02;;;;;;;3.27;2.97;;;7.20;99.90;;;;;;4970090;28;20293;-60
2023/11/16 00:15:30;;;;;;;3.17;3.00;;;7.20;99.90;;;;;;4972917;28;20245;-59
2023/11/16 00:17:57;;;;;;;5.33;2.80;;;7.20;99.90;;;;;;4972996;28;20244;-59
2023/11/16 00:20:24;;;;;;;3.73;3.27;;;7.20;99.90;;;;;;4968739;28;20238;-59
2023/11/16 00:22:51;;;;;;;4.10;3.47;;;7.20;99.90;;;;;;4977163;28;20267;-59
2023/11/16 00:25:20;;;;;;;7.10;2.97;;;7.20;99.90;;;;;;4979439;28;20259;-59
2023/11/16 00:27:46;;;;;;;2.63;2.53;;;7.10;99.90;;;;;;4970244;28;20210;-59
2023/11/16 00:30:14;;;;;;;3.70;3.00;;;7.20;99.90;;;;;;4975146;28;20752;-61
2023/11/16 00:32:41;;;;;;;2.70;2.53;;;7.10;99.90;;;;;;4978801;28;20203;-61
2023/11/16 00:35:09;;;;;;;3.67;2.93;;;7.10;99.90;;;;;;4974534;28;20229;-61
2023/11/16 00:37:36;;;;;;;2.87;2.67;;;7.10;99.90;;;;;;4986412;28;20622;-61
2023/11/16 00:40:04;;;;;;;2.43;2.33;;;7.10;99.90;;;;;;4979607;28;20721;-61
2023/11/16 00:42:35;;;;;;;2.20;2.10;;;7.00;99.90;;;;;;4970714;28;20207;-61
2023/11/16 00:45:02;;;;;;;2.43;2.23;;;7.10;99.90;;;;;;4971918;28;20224;-61
2023/11/16 00:47:29;;;;;;;2.87;2.67;;;7.10;99.90;;;;;;4977101;28;20425;-61
2023/11/16 00:49:56;;;;;;;2.27;2.03;;;7.10;99.90;;;;;;4971672;28;20673;-61
2023/11/16 00:52:24;;;;;;;1.63;1.60;;;7.10;99.90;;;;;;4970868;28;20222;-61
2023/11/16 00:54:51;;;;;;;1.93;1.73;;;7.10;99.90;;;;;;4978544;28;20257;-61
2023/11/16 00:57:20;;;;;;;1.77;1.67;;;7.10;99.90;;;;;;4983713;28;20252;-61
2023/11/16 00:59:48;;;;;;;1.60;1.50;;;7.00;99.90;;;;;;4975504;28;20571;-61
2023/11/16 01:02:15;;;;;;;2.03;1.83;;;7.00;99.90;;;;;;4982458;28;20231;-60
2023/11/16 01:04:42;;;;;;;2.20;2.00;;;7.00;99.90;;;;;;4970117;28;20890;-59
2023/11/16 01:07:10;;;;;;;1.83;1.63;;;7.10;99.90;;;;;;4972218;28;20205;-59
2023/11/16 01:09:37;;;;;;;6.37;2.00;;;7.00;99.90;;;;;;4970669;28;20220;-59
2023/11/16 01:12:11;;;;;;;2.00;1.83;;;7.00;99.90;;;;;;4970978;28;20250;-59
2023/11/16 01:14:39;;;;;;;5.43;1.97;;;7.00;99.90;;;;;;4973169;28;20242;-58
2023/11/16 01:17:18;;;;;;;3.50;1.80;;;7.00;99.90;;;;;;4976461;28;20601;-59
2023/11/16 01:19:45;;;;;;;2.17;1.70;;;7.00;99.90;;;;;;4980031;28;20673;-59
2023/11/16 01:22:15;;;;;;;3.37;1.70;;;6.90;99.90;;;;;;4977951;28;20300;-59
2023/11/16 01:24:44;;;;;;;1.70;1.60;;;7.00;99.90;;;;;;4973517;28;20221;-59
2023/11/16 01:27:15;;;;;;;2.50;2.30;;;7.00;99.90;;;;;;4970235;28;20202;-59
2023/11/16 01:29:45;;;;;;;5.20;1.60;;;7.00;99.90;;;;;;4970862;28;20217;-59
2023/11/16 01:32:14;;;;;;;2.03;1.93;;;7.00;99.90;;;;;;4972678;28;20293;-61
2023/11/16 01:34:41;;;;;;;3.67;2.00;;;7.00;99.90;;;;;;4974621;28;20237;-61
2023/11/16 01:37:10;;;;;;;1.47;1.47;;;7.00;99.90;;;;;;4980609;28;20244;-61
2023/11/16 01:39:38;;;;;;;1.90;1.80;;;6.90;99.90;;;;;;4972980;28;20697;-61
2023/11/16 01:42:07;;;;;;;1.93;1.43;;;7.00;99.90;;;;;;4982630;28;20201;-61
2023/11/16 01:44:34;;;;;;;1.50;1.40;;;7.00;99.90;;;;;;4977254;28;20229;-61
2023/11/16 01:47:02;;;;;;;3.77;1.70;;;7.10;99.90;;;;;;4984929;28;20243;-61
2023/11/16 01:49:31;;;;;;;1.47;1.10;;;7.00;99.90;;;;;;4987631;28;20283;-61
2023/11/16 01:51:58;;;;;;;0.90;0.90;;;7.00;99.90;;;;;;4977641;28;20289;-61
2023/11/16 01:54:26;;;;;;;1.57;1.30;;;6.90;99.90;;;;;;4975569;28;20256;-61
2023/11/16 01:56:53;;;;;;;2.50;1.00;;;6.90;99.90;;;;;;4978224;28;20208;-61
2023/11/16 01:59:21;;;;;;;1.23;1.23;;;6.90;99.90;;;;;;4986022;28;20759;-61
2023/11/16 02:01:48;;;;;;;1.20;1.20;;;6.90;99.90;;;;;;4978927;28;20277;-61
2023/11/16 02:04:15;;;;;;;1.43;1.33;;;6.90;99.90;;;;;;4978261;28;20253;-61
2023/11/16 02:06:44;;;;;;;1.43;1.27;;;6.90;99.90;;;;;;4976037;28;20309;-61
2023/11/16 02:09:11;;;;;;;2.00;1.40;;;7.00;99.90;;;;;;4975167;28;20589;-61
2023/11/16 02:11:38;;;;;;;1.17;1.17;;;7.00;99.90;;;;;;4980260;28;20207;-61
2023/11/16 02:14:05;;;;;;;3.40;1.40;;;7.00;99.90;;;;;;4978623;28;20262;-61
2023/11/16 02:16:32;;;;;;;1.80;1.17;;;7.00;99.90;;;;;;4983142;28;20237;-62
2023/11/16 02:19:17;;;;;;;1.67;1.57;;;7.10;99.90;;;;;;4981345;28;20217;-61
2023/11/16 02:21:47;;;;;;;0.97;0.63;;;7.00;99.90;;;;;;4978171;28;20248;-61
2023/11/16 02:24:16;;;;;;;0.77;0.77;;;6.90;99.90;;;;;;4973021;28;20281;-59
2023/11/16 02:26:43;;;;;;;1.70;0.97;;;6.90;99.90;;;;;;4980565;28;20210;-59
2023/11/16 02:29:10;;;;;;;1.23;0.90;;;6.90;99.90;;;;;;4974151;28;20200;-59
2023/11/16 02:31:37;;;;;;;1.53;0.93;;;6.90;99.90;;;;;;4982030;28;20294;-59
2023/11/16 02:34:05;;;;;;;0.77;0.70;;;6.80;99.90;;;;;;4982190;28;20316;-59
2023/11/16 02:36:32;;;;;;;3.33;1.20;;;6.70;99.90;;;;;;4984476;28;20210;-59
2023/11/16 02:39:01;;;;;;;1.03;1.03;;;6.70;99.90;;;;;;4984949;28;20274;-59
2023/11/16 02:41:36;;;;;;;0.70;0.70;;;6.70;99.90;;;;;;4978807;28;20629;-59
2023/11/16 02:44:03;;;;;;;0.50;0.50;;;6.70;99.90;;;;;;4985810;28;20226;-59
2023/11/16 02:46:34;;;;;;;1.00;1.00;;;6.60;99.90;;;;;;4986152;28;20213;-59
2023/11/16 02:49:01;;;;;;;1.37;0.97;;;6.50;99.90;;;;;;4988291;28;20197;-59
2023/11/16 02:51:28;;;;;;;0.80;0.80;;;6.40;99.90;;;;;;4973785;28;20584;-59
2023/11/16 02:53:55;;;;;;;0.70;0.70;;;6.40;99.90;;;;;;4973546;28;20712;-59
2023/11/16 02:56:22;;;;;;;0.90;0.90;;;6.30;99.90;;;;;;4973446;28;20287;-59
2023/11/16 02:58:50;;;;;;;0.77;0.77;;;6.20;99.90;;;;;;4975853;28;20249;-59
2023/11/16 03:01:18;;;;;;;1.27;1.27;;;6.10;99.90;;;;;;4981739;28;20288;-59
2023/11/16 03:03:45;;;;;;;3.00;0.90;;;6.00;99.90;;;;;;4971217;28;20253;-59
2023/11/16 03:06:13;;;;;;;1.37;0.70;;;6.00;99.90;;;;;;4971449;28;20245;-59
2023/11/16 03:08:40;;;;;;;0.83;0.83;;;5.90;99.90;;;;;;4984418;28;20637;-59
2023/11/16 03:11:08;;;;;;;1.87;1.00;;;5.90;99.90;;;;;;4976361;28;20233;-59
2023/11/16 03:13:36;;;;;;;2.10;1.10;;;5.90;99.90;;;;;;4969525;28;20238;-59
2023/11/16 03:16:06;;;;;;;0.90;0.90;;;5.90;99.90;;;;;;5009146;23;20252;-60
2023/11/16 03:18:33;;;;;;;0.70;0.70;;;6.00;99.90;;;;;;4986823;28;20256;-60
2023/11/16 03:21:00;;;;;;;0.77;0.50;;;6.00;99.90;;;;;;4992451;28;20201;-60
2023/11/16 03:23:27;;;;;;;0.87;0.77;;;6.00;99.90;;;;;;4991443;28;20211;-60
2023/11/16 03:25:55;;;;;;;0.60;0.60;;;6.10;99.90;;;;;;4991674;28;20249;-59
2023/11/16 03:28:22;;;;;;;0.73;0.70;;;6.00;99.90;;;;;;4989867;28;20253;-59
2023/11/16 03:30:49;;;;;;;1.27;0.90;;;5.90;99.90;;;;;;4972368;28;20198;-60
2023/11/16 03:33:18;;;;;;;0.50;0.50;;;5.80;99.90;;;;;;4988858;28;20209;-60
2023/11/16 03:35:48;;;;;;;0.90;0.90;;;5.90;99.90;;;;;;4990347;28;20222;-60
2023/11/16 03:38:17;;;;;;;0.70;0.70;;;5.90;99.90;;;;;;4991256;28;20282;-60
2023/11/16 03:40:44;;;;;;;0.90;0.83;;;5.90;99.90;;;;;;4990538;28;20261;-60
2023/11/16 03:43:12;;;;;;;1.63;0.70;;;5.80;99.90;;;;;;4990209;28;20268;-60
2023/11/16 03:45:40;;;;;;;1.70;0.83;;;5.80;99.90;;;;;;4989900;28;20221;-60
2023/11/16 03:48:08;;;;;;;2.47;0.60;;;5.80;99.90;;;;;;4991260;28;20200;-60
2023/11/16 03:50:37;;;;;;;1.53;0.83;;;5.80;99.90;;;;;;4990269;28;20209;-61
2023/11/16 03:53:04;;;;;;;0.63;0.63;;;5.80;99.90;;;;;;4989970;28;20284;-60
2023/11/16 03:55:31;;;;;;;1.90;0.60;;;5.60;99.90;;;;;;4989908;28;20234;-60
2023/11/16 03:57:58;;;;;;;0.50;0.50;;;5.60;99.90;;;;;;4989375;28;20217;-61
2023/11/16 04:00:25;;;;;;;0.77;0.40;;;5.60;99.90;;;;;;4990678;28;20229;-60
2023/11/16 04:02:54;;;;;;;3.40;0.50;;;5.60;99.90;;;;;;4986025;28;20757;-61
2023/11/16 04:05:21;;;;;;;0.40;0.40;;;5.60;99.90;;;;;;4985062;28;20754;-61
2023/11/16 04:07:49;;;;;;;0.67;0.67;;;5.60;99.90;;;;;;4990509;28;20197;-61
2023/11/16 04:10:17;;;;;;;2.40;0.70;;;5.60;99.90;;;;;;4986683;28;20206;-61
2023/11/16 04:12:44;;;;;;;0.60;0.60;;;5.50;99.90;;;;;;4976114;28;20279;-60
2023/11/16 04:15:13;;;;;;;0.97;0.70;;;5.50;99.90;;;;;;4984632;28;20309;-61
2023/11/16 04:17:40;;;;;;;1.90;0.43;;;5.50;99.90;;;;;;4981406;28;20260;-61
2023/11/16 04:20:09;;;;;;;0.77;0.60;;;5.50;99.90;;;;;;4989055;28;20233;-60
2023/11/16 04:22:38;;;;;;;1.10;1.00;;;5.40;99.90;;;;;;4987245;28;20211;-61
2023/11/16 04:25:11;;;;;;;1.43;1.33;;;5.30;99.90;;;;;;4976464;28;20317;-60
2023/11/16 04:27:38;;;;;;;0.57;0.57;;;5.30;99.90;;;;;;4980513;28;20287;-61
2023/11/16 04:30:07;;;;;;;2.03;0.70;;;5.20;99.90;;;;;;4977966;28;20204;-60
2023/11/16 04:32:34;;;;;;;2.40;0.50;;;5.20;99.90;;;;;;4980247;28;20284;-60
2023/11/16 04:35:03;;;;;;;0.73;0.53;;;5.10;99.90;;;;;;4987045;28;20274;-60
2023/11/16 04:37:32;;;;;;;0.60;0.60;;;5.00;99.90;;;;;;4989622;28;20210;-61
2023/11/16 04:39:59;;;;;;;0.50;0.50;;;5.00;99.90;;;;;;4978981;28;20309;-60
2023/11/16 04:42:27;;;;;;;1.03;0.90;;;4.90;99.90;;;;;;4979428;28;20663;-60
2023/11/16 04:44:55;;;;;;;0.87;0.77;;;4.80;99.90;;;;;;4980063;28;20234;-61
2023/11/16 04:47:22;;;;;;;0.80;0.80;;;4.80;99.90;;;;;;4982879;28;20201;-60
2023/11/16 04:49:49;;;;;;;1.07;0.70;;;4.80;99.90;;;;;;4982412;28;20198;-61
2023/11/16 04:52:16;;;;;;;0.67;0.60;;;4.70;99.90;;;;;;4988891;28;20205;-60
2023/11/16 04:54:43;;;;;;;1.10;0.90;;;4.60;99.90;;;;;;4988320;28;20722;-60
2023/11/16 04:57:09;;;;;;;0.77;0.50;;;4.70;99.90;;;;;;4984547;28;20203;-60
2023/11/16 04:59:38;;;;;;;0.90;0.70;;;4.70;99.90;;;;;;4979130;28;20261;-61
2023/11/16 05:02:05;;;;;;;0.50;0.50;;;4.70;99.90;;;;;;4981515;28;20213;-60
2023/11/16 05:04:33;;;;;;;0.83;0.70;;;4.60;99.90;;;;;;4984271;28;20235;-61
2023/11/16 05:07:00;;;;;;;1.33;0.60;;;4.60;99.90;;;;;;4976852;28;20208;-60
2023/11/16 05:09:27;;;;;;;0.70;0.70;;;4.70;99.90;;;;;;4979361;28;20265;-61
2023/11/16 05:11:55;;;;;;;0.80;0.60;;;4.60;99.90;;;;;;4989454;28;20207;-61
2023/11/16 05:14:22;;;;;;;1.07;1.03;;;4.60;99.90;;;;;;4982586;28;20340;-61
2023/11/16 05:16:51;;;;;;;0.50;0.50;;;4.60;99.90;;;;;;4982994;28;20209;-60
2023/11/16 05:19:18;;;;;;;0.90;0.90;;;4.60;99.90;;;;;;4990500;28;20222;-60
2023/11/16 05:21:45;;;;;;;1.20;0.40;;;4.50;99.90;;;;;;4988676;28;20268;-61
2023/11/16 05:24:12;;;;;;;0.70;0.70;;;4.50;99.90;;;;;;4993920;28;20277;-60
2023/11/16 05:26:39;;;;;;;1.27;1.07;;;4.50;99.90;;;;;;4992954;28;20202;-60
2023/11/16 05:29:06;;;;;;;1.23;1.23;;;4.50;99.90;;;;;;4994332;28;20198;-61
2023/11/16 05:31:36;;;;;;;3.53;1.10;;;4.50;99.90;;;;;;4993132;28;20291;-61
2023/11/16 05:34:07;;;;;;;3.20;1.10;;;4.40;99.90;;;;;;4987735;28;20207;-61
2023/11/16 05:36:36;;;;;;;2.40;1.50;;;4.40;99.90;;;;;;4988267;28;20230;-60
2023/11/16 05:39:04;;;;;;;1.17;1.07;;;4.30;99.90;;;;;;4986064;28;20275;-61
2023/11/16 05:41:33;;;;;;;1.00;1.00;;;4.30;99.90;;;;;;4991342;28;20331;-60
2023/11/16 05:44:01;;;;;;;0.83;0.83;;;4.30;99.90;;;;;;4992483;28;20233;-60
2023/11/16 05:46:33;;;;;;;1.63;1.00;;;4.40;99.90;;;;;;4989968;28;20211;-61
2023/11/16 05:49:00;;;;;;;1.30;1.20;;;4.30;99.90;;;;;;4995025;28;20682;-60
2023/11/16 05:51:37;;;;;;;0.80;0.80;;;4.30;99.90;;;;;;4990061;28;20648;-60
2023/11/16 05:54:05;;;;;;;0.70;0.70;;;4.20;99.90;;;;;;4993641;28;20205;-60
2023/11/16 05:56:33;;;;;;;1.70;0.80;;;4.20;99.90;;;;;;4992406;28;20215;-61
2023/11/16 05:59:00;;;;;;;0.87;0.83;;;4.20;99.90;;;;;;4990702;28;20656;-60
2023/11/16 06:01:28;;;;;;;1.13;0.90;;;4.20;99.90;;;;;;4992131;28;20291;-61
2023/11/16 06:03:55;;;;;;;1.47;1.03;;;4.20;99.90;;;;;;4993144;28;20288;-60
2023/11/16 06:06:22;;;;;;;1.17;1.10;;;4.20;99.90;;;;;;4992303;28;20207;-61
2023/11/16 06:08:50;;;;;;;3.80;1.27;;;4.10;99.90;;;;;;4993253;28;20701;-61
2023/11/16 06:11:17;;;;;;;1.83;0.90;;;4.10;99.90;;;;;;4984391;28;20227;-60
2023/11/16 06:13:44;;;;;;;2.30;1.43;;;4.10;99.90;;;;;;4993129;28;20743;-60
2023/11/16 06:16:12;;;;;;;1.10;1.10;;;4.10;99.90;;;;;;4992201;28;20231;-61
2023/11/16 06:18:39;;;;;;;1.47;1.00;;;4.10;99.90;;;;;;4992857;28;20224;-60
2023/11/16 06:21:06;;;;;;;0.70;0.60;;;4.10;99.90;;;;;;4987536;28;20279;-60
2023/11/16 06:23:35;;;;;;;1.80;1.70;;;4.10;99.90;;;;;;4977853;28;20496;-61
2023/11/16 06:26:06;;;;;;;1.57;0.97;;;4.20;99.90;;;;;;4973101;28;20253;-63
2023/11/16 06:28:35;;;;;;;1.17;1.17;;;4.20;99.90;;;;;;4973381;28;20211;-62
2023/11/16 06:31:02;;;;;;;1.23;0.87;;;4.30;99.90;;;;;;4980124;28;20346;-62
2023/11/16 06:33:28;;;;;;;1.00;1.00;;;4.20;99.90;;;;;;4983584;28;20207;-61
2023/11/16 06:35:55;;;;;;;1.30;1.10;;;4.30;99.90;;;;;;4991557;28;20217;-62
2023/11/16 06:38:22;;;;;;;1.50;1.10;;;4.30;99.90;;;;;;4986939;28;20375;-61
2023/11/16 06:40:49;;;;;;;2.03;1.13;;;4.30;99.90;;;;;;4992756;28;20295;-64
2023/11/16 06:43:18;;;;;;;1.07;0.90;;;4.30;99.90;;;;;;4993186;28;20234;-63
2023/11/16 06:45:45;;;;;;;1.10;1.10;;;4.30;99.90;;;;;;4992249;28;20257;-64
2023/11/16 06:48:12;;;;;;;0.70;0.70;;;4.30;99.90;;;;;;4992744;28;20218;-63
2023/11/16 06:50:39;;;;;;;0.80;0.80;;;4.40;99.90;;;;;;4989896;28;20208;-64
2023/11/16 06:53:09;;;;;;;1.07;1.07;;;4.40;99.90;;;;;;4981337;28;20657;-63
2023/11/16 06:55:38;;;;;;;2.73;1.27;;;4.40;99.90;;;;;;4977323;28;20375;-62
2023/11/16 06:58:07;;;;;;;1.83;1.30;;;4.40;99.90;;;;;;4981404;28;20536;-61
2023/11/16 07:00:36;;;;;;;1.83;1.50;;;4.40;99.90;;;;;;4973090;28;20226;-62
2023/11/16 07:03:04;;;;;;;3.07;2.20;;;4.40;99.90;;;;;;4978301;28;20213;-62
2023/11/16 07:05:32;;;;;;;3.27;1.83;;;4.40;99.90;;;;;;4980581;28;20226;-62
2023/11/16 07:07:59;;;;;;;3.63;1.40;;;4.60;99.90;;;;;;4985334;28;20224;-64
2023/11/16 07:10:26;;;;;;;2.47;2.27;;;4.60;99.90;;;;;;4980941;28;20680;-64
2023/11/16 07:12:53;;;;;;;1.87;1.77;;;4.60;99.90;;;;;;4978973;28;20313;-63
2023/11/16 07:15:21;;;;;;;1.93;1.20;;;4.60;99.90;;;;;;4991659;28;20238;-63
2023/11/16 07:17:49;;;;;;;2.27;1.43;;;4.70;99.90;;;;;;4992100;28;20201;-63
2023/11/16 07:20:16;;;;;;;1.30;1.20;;;4.80;99.90;;;;;;4984672;28;20225;-58
2023/11/16 07:22:43;;;;;;;2.20;1.47;;;4.80;99.90;;;;;;4989569;28;20206;-58
2023/11/16 07:25:13;;;;;;;1.67;1.20;;;4.90;99.90;;;;;;4991543;28;20748;-58
2023/11/16 07:27:40;;;;;;;1.97;1.00;;;4.90;99.90;;;;;;4990960;28;20213;-58
2023/11/16 07:30:09;;;;;;;1.47;0.90;;;5.00;99.90;;;;;;4991719;28;20203;-58
2023/11/16 07:32:36;;;;;;;1.40;1.30;;;5.10;99.90;;;;;;4991048;28;20210;-57
2023/11/16 07:35:14;;;;;;;3.87;1.57;;;5.20;99.90;;;;;;4975323;28;20283;-57
2023/11/16 07:37:41;;;;;;;1.20;0.93;;;5.30;99.90;;;;;;4988229;28;20217;-58
2023/11/16 07:40:11;;;;;;;1.73;1.30;;;5.40;99.90;;;;;;4991277;28;20214;-57
2023/11/16 07:42:39;;;;;;;1.80;0.83;;;5.50;99.90;;;;;;4986046;28;20212;-57
2023/11/16 07:45:09;;;;;;;1.70;0.90;;;5.60;99.90;;;;;;4980816;28;20778;-57
2023/11/16 07:47:37;;;;;;;4.37;1.27;;;5.80;99.90;;;;;;4989493;28;20211;-57
2023/11/16 07:50:09;;;;;;;4.43;1.40;;;5.80;99.90;;;;;;4990769;28;20200;-58
2023/11/16 07:52:42;;;;;;;0.93;0.80;;;5.90;99.90;;;;;;4981598;28;20216;-58
2023/11/16 07:55:10;;;;;;;2.57;0.80;;;6.00;99.90;;;;;;4980037;28;20873;-58
2023/11/16 07:57:38;;;;;;;1.80;0.60;;;6.20;99.90;;;;;;4974724;28;20697;-58
2023/11/16 08:00:11;;;;;;;2.63;0.43;;;6.30;99.90;;;;;;4978208;28;20441;-57
2023/11/16 08:03:42;;;;;;;0.50;0.50;;;6.40;99.90;;;;;;4988443;28;20209;-58
2023/11/16 08:05:31;;;;;;;1.00;0.50;;;6.50;99.90;;;;;;4980983;28;20238;-57
2023/11/16 08:07:58;;;;;;;0.47;0.47;;;6.60;99.90;;;;;;4979845;28;20254;-58
2023/11/16 08:10:26;;;;;;;0.73;0.50;;;6.50;99.90;;;;;;4971706;28;20194;-58
2023/11/16 08:12:54;;;;;;;2.57;0.50;;;6.70;99.90;;;;;;4971832;28;20252;-58
2023/11/16 08:15:24;;;;;;;0.60;0.57;;;6.70;99.90;;;;;;4983376;28;20242;-58
2023/11/16 08:17:53;;;;;;;2.23;0.70;;;6.70;99.90;;;;;;4990970;28;20233;-57
2023/11/16 08:20:23;;;;;;;0.93;0.60;;;6.70;99.90;;;;;;4989043;28;20331;-57
2023/11/16 08:22:52;;;;;;;1.90;0.73;;;6.90;99.90;;;;;;4985253;28;20295;-57
2023/11/16 08:25:21;;;;;;;1.30;0.97;;;7.20;99.90;;;;;;4981159;28;20244;-59
2023/11/16 08:27:49;;;;;;;1.20;1.07;;;7.30;99.90;;;;;;4990776;28;20205;-59
2023/11/16 08:30:17;;;;;;;2.87;0.90;;;7.50;99.90;;;;;;4985927;28;20198;-59
2023/11/16 08:32:44;;;;;;;0.90;0.83;;;7.50;99.90;;;;;;4990547;28;20598;-59
2023/11/16 08:35:13;;;;;;;1.07;0.60;;;7.50;99.90;;;;;;4990534;28;20224;-59
2023/11/16 08:37:40;;;;;;;1.07;0.50;;;7.60;99.90;;;;;;4989498;28;20216;-59
2023/11/16 08:40:10;;;;;;;2.40;1.10;;;7.60;99.90;;;;;;4984122;28;20320;-59
2023/11/16 08:42:41;;;;;;;1.70;1.00;;;7.60;99.90;;;;;;4980633;28;20266;-58
2023/11/16 08:45:17;;;;;;;2.07;0.90;;;7.60;99.90;;;;;;4989820;28;20280;-58
2023/11/16 08:47:45;;;;;;;1.00;1.00;;;7.70;99.90;;;;;;4988022;28;20209;-58
2023/11/16 08:50:13;;;;;;;0.93;0.93;;;7.80;99.90;;;;;;4984903;28;20225;-58
2023/11/16 08:52:42;;;;;;;1.53;0.60;;;8.00;99.90;;;;;;4990248;28;20213;-58
2023/11/16 08:55:12;;;;;;;1.53;1.10;;;8.10;99.90;;;;;;4989800;28;20707;-58
2023/11/16 08:57:40;;;;;;;0.80;0.80;;;8.30;99.90;;;;;;4977129;28;20281;-57
2023/11/16 09:00:30;;;;;;;3.60;0.90;;;8.30;99.90;;;;;;4989901;28;20229;-58
2023/11/16 09:02:58;;;;;;;1.33;0.53;;;8.40;99.90;;;;;;4990746;28;20297;-58
2023/11/16 09:05:28;;;;;;;0.70;0.70;;;8.40;99.90;;;;;;4990041;28;20222;-58
2023/11/16 09:07:55;;;;;;;0.67;0.60;;;8.40;99.90;;;;;;4990653;28;20261;-58
2023/11/16 09:10:24;;;;;;;2.73;0.83;;;8.30;99.90;;;;;;4990364;28;20280;-58
2023/11/16 09:12:53;;;;;;;2.40;0.80;;;8.30;99.90;;;;;;4985951;28;20216;-58
2023/11/16 09:15:22;;;;;;;2.93;0.87;;;8.40;99.90;;;;;;4984053;28;20325;-58
2023/11/16 09:17:49;;;;;;;0.63;0.63;;;8.40;99.90;;;;;;4990041;28;20212;-58
2023/11/16 09:20:19;;;;;;;0.70;0.60;;;8.40;99.90;;;;;;4988865;28;20221;-58
2023/11/16 09:22:48;;;;;;;0.90;0.60;;;8.30;99.90;;;;;;4989890;28;20222;-58
2023/11/16 09:25:19;;;;;;;0.70;0.70;;;8.30;99.90;;;;;;4990146;28;20250;-58
2023/11/16 09:27:50;;;;;;;0.60;0.47;;;8.10;99.90;;;;;;4989541;28;20209;-58
2023/11/16 09:30:18;;;;;;;0.60;0.57;;;8.00;99.90;;;;;;4989178;28;20253;-58
2023/11/16 09:32:46;;;;;;;2.10;0.77;;;7.80;99.90;;;;;;4980733;28;20202;-58
2023/11/16 09:35:15;;;;;;;2.30;1.00;;;7.80;99.90;;;;;;4981804;28;20225;-58
2023/11/16 09:37:45;;;;;;;1.27;0.70;;;7.80;99.90;;;;;;4988917;28;20662;-57
2023/11/16 09:40:14;;;;;;;2.17;1.10;;;7.80;99.90;;;;;;4990107;28;20238;-57
2023/11/16 09:42:43;;;;;;;0.97;0.73;;;7.70;99.90;;;;;;4990068;28;20300;-58
2023/11/16 09:45:11;;;;;;;2.80;1.80;;;7.70;99.90;;;;;;4988685;28;20228;-57
2023/11/16 09:47:44;;;;;;;0.90;0.90;;;7.70;99.90;;;;;;4978782;28;20302;-58
2023/11/16 09:50:14;;;;;;;0.83;0.83;;;7.80;99.90;;;;;;4970766;28;20674;-58
2023/11/16 09:52:41;;;;;;;1.73;1.03;;;7.80;99.90;;;;;;4970677;28;20209;-58
2023/11/16 09:55:10;;;;;;;1.30;1.20;;;7.80;99.90;;;;;;4970413;28;20226;-57
2023/11/16 09:57:41;;;;;;;1.33;1.20;;;7.80;99.90;;;;;;4977010;28;20540;-58
2023/11/16 10:00:16;;;;;;;2.37;1.37;;;7.70;99.90;;;;;;4988012;28;20777;-58
2023/11/16 10:02:45;;;;;;;2.77;1.10;;;7.70;99.90;;;;;;4989428;28;20746;-58
2023/11/16 10:05:23;;;;;;;1.70;1.40;;;7.60;99.90;;;;;;4982179;28;20225;-58
2023/11/16 10:07:52;;;;;;;1.40;0.87;;;7.70;99.90;;;;;;4990374;28;20272;-58
2023/11/16 10:10:20;;;;;;;2.40;1.00;;;7.60;99.90;;;;;;4985040;28;20285;-58
2023/11/16 10:12:49;;;;;;;1.13;0.70;;;7.60;99.90;;;;;;4981346;28;20214;-58
2023/11/16 10:15:20;;;;;;;1.20;1.10;;;7.70;99.90;;;;;;4974722;28;20261;-61
2023/11/16 10:17:47;;;;;;;1.10;1.00;;;7.60;99.90;;;;;;4993224;28;20206;-60
2023/11/16 10:20:16;;;;;;;2.13;0.67;;;7.50;99.90;;;;;;4993154;28;20216;-63
2023/11/16 10:22:44;;;;;;;2.07;1.30;;;7.50;99.90;;;;;;4992412;28;20213;-63
2023/11/16 10:25:11;;;;;;;2.50;1.17;;;7.70;99.90;;;;;;4980150;28;20676;-63
2023/11/16 10:27:39;;;;;;;1.80;1.03;;;7.70;99.90;;;;;;4973756;28;20284;-64
2023/11/16 10:30:11;;;;;;;2.77;1.10;;;7.80;99.90;;;;;;4973746;28;20608;-62
2023/11/16 10:32:42;;;;;;;2.40;1.27;;;7.90;99.90;;;;;;4973519;28;20210;-57
2023/11/16 10:35:13;;;;;;;3.90;1.10;;;8.00;99.90;;;;;;4979871;28;20256;-62
2023/11/16 10:37:43;;;;;;;1.03;1.03;;;8.10;99.90;;;;;;4989750;28;20206;-62
2023/11/16 10:40:11;;;;;;;4.43;1.73;;;8.10;99.90;;;;;;4985821;28;20660;-61
2023/11/16 10:42:41;;;;;;;0.97;0.97;;;8.20;99.90;;;;;;4983930;28;20281;-62
2023/11/16 10:45:14;;;;;;;2.03;1.17;;;8.30;99.90;;;;;;4992375;28;20615;-62
2023/11/16 10:47:45;;;;;;;3.20;2.00;;;8.40;99.90;;;;;;4993784;28;20206;-63
2023/11/16 10:50:15;;;;;;;7.03;1.20;;;8.40;99.90;;;;;;4992392;28;20202;-62
2023/11/16 10:52:43;;;;;;;3.60;1.60;;;8.40;99.90;;;;;;4991389;28;20277;-61
2023/11/16 10:55:16;;;;;;;1.63;0.93;;;8.50;99.90;;;;;;4986087;28;20285;-62
2023/11/16 10:57:46;;;;;;;0.80;0.80;;;8.40;99.90;;;;;;4990793;28;20202;-63
2023/11/16 11:00:17;;;;;;;1.37;1.37;;;8.50;99.90;;;;;;4991145;28;20640;-63
2023/11/16 11:02:47;;;;;;;0.80;0.70;;;8.50;99.90;;;;;;4992363;28;20760;-61
2023/11/16 11:05:19;;;;;;;1.53;1.07;;;8.50;99.90;;;;;;4992044;28;20661;-59
2023/11/16 11:07:50;;;;;;;2.50;1.20;;;8.50;99.90;;;;;;4990569;28;20204;-59
2023/11/16 11:10:18;;;;;;;1.20;1.10;;;8.60;99.90;;;;;;4991060;28;20198;-59
2023/11/16 11:12:47;;;;;;;1.43;1.33;;;8.70;99.90;;;;;;4984020;28;20651;-60
2023/11/16 11:15:25;;;;;;;2.10;1.43;;;8.80;99.90;;;;;;4990040;28;20312;-60
2023/11/16 11:17:54;;;;;;;1.47;1.10;;;9.00;99.90;;;;;;4991306;28;20205;-59
2023/11/16 11:20:31;;;;;;;1.10;1.03;;;9.10;99.90;;;;;;4991273;28;20225;-59
2023/11/16 11:23:08;;;;;;;0.70;0.67;;;9.30;99.90;;;;;;4992064;28;20760;-59
2023/11/16 11:25:37;;;;;;;2.10;1.43;;;9.30;99.90;;;;;;4989859;28;20685;-60
2023/11/16 11:28:05;;;;;;;1.17;1.17;;;9.40;99.90;;;;;;4980264;28;20577;-64
2023/11/16 11:30:35;;;;;;;1.23;0.80;;;9.30;99.90;;;;;;4991769;28;20201;-61
2023/11/16 11:33:14;;;;;;;1.40;0.83;;;9.50;99.90;;;;;;4990467;28;20224;-60
2023/11/16 11:35:49;;;;;;;1.87;1.40;;;9.30;99.90;;;;;;4988433;28;20218;-60
2023/11/16 11:38:19;;;;;;;1.10;0.90;;;9.40;99.90;;;;;;4988924;28;20202;-60
2023/11/16 11:40:48;;;;;;;1.70;1.27;;;9.30;99.90;;;;;;4978528;28;20688;-60
2023/11/16 11:43:24;;;;;;;1.07;1.07;;;9.20;99.90;;;;;;4988290;28;20642;-60
2023/11/16 11:45:52;;;;;;;0.60;0.60;;;9.30;99.90;;;;;;4988461;28;20216;-60
2023/11/16 11:48:22;;;;;;;1.20;1.10;;;9.40;99.90;;;;;;4990647;28;20732;-60
2023/11/16 11:50:54;;;;;;;1.90;0.90;;;9.50;99.90;;;;;;4991682;28;20202;-60
2023/11/16 11:53:26;;;;;;;2.97;0.70;;;9.60;99.90;;;;;;4991760;28;20237;-60
2023/11/16 11:55:54;;;;;;;1.47;0.80;;;9.60;99.90;;;;;;4982456;28;20233;-60
2023/11/16 11:58:21;;;;;;;0.73;0.60;;;9.60;99.90;;;;;;4976374;28;20666;-60
2023/11/16 12:00:49;;;;;;;2.90;0.67;;;9.60;99.90;;;;;;4990735;28;20227;-60
2023/11/16 12:03:17;;;;;;;5.27;1.57;;;9.50;99.90;;;;;;4991083;28;20227;-60
2023/11/16 12:05:54;;;;;;;1.13;0.60;;;9.50;99.90;;;;;;4990756;28;20726;-60
2023/11/16 12:08:21;;;;;;;4.20;1.83;;;9.50;99.90;;;;;;4991462;28;20199;-60
2023/11/16 12:10:47;;;;;;;1.40;1.30;;;9.40;99.90;;;;;;4991096;28;20584;-60
2023/11/16 12:13:17;;;;;;;0.60;0.60;;;9.30;99.90;;;;;;4978170;28;20207;-60
2023/11/16 12:15:44;;;;;;;3.60;0.80;;;9.40;99.90;;;;;;4977372;28;20230;-60
2023/11/16 12:18:12;;;;;;;2.27;0.63;;;9.40;99.90;;;;;;4989811;28;20206;-60
2023/11/16 12:20:40;;;;;;;3.50;1.90;;;9.40;99.90;;;;;;4988312;28;20653;-60
2023/11/16 12:23:09;;;;;;;1.80;0.87;;;9.50;99.90;;;;;;4991036;28;20229;-60
2023/11/16 12:25:37;;;;;;;0.57;0.57;;;9.50;99.90;;;;;;4989405;28;20261;-59
2023/11/16 12:28:05;;;;;;;0.80;0.80;;;9.40;99.90;;;;;;4979283;28;20699;-59
2023/11/16 12:30:36;;;;;;;1.13;0.80;;;9.40;99.90;;;;;;4982600;28;20610;-60
2023/11/16 12:33:03;;;;;;;2.40;0.60;;;9.30;99.90;;;;;;4983530;28;20690;-59
2023/11/16 12:35:30;;;;;;;1.93;0.77;;;9.20;99.90;;;;;;4990268;28;20224;-60
2023/11/16 12:37:57;;;;;;;0.70;0.70;;;9.00;99.90;;;;;;4990589;28;20678;-60
2023/11/16 12:40:25;;;;;;;4.13;1.10;;;8.90;99.90;;;;;;4989013;28;20252;-59
2023/11/16 12:42:52;;;;;;;1.00;0.80;;;8.90;99.90;;;;;;4986589;28;20214;-60
2023/11/16 12:45:20;;;;;;;4.73;0.93;;;9.00;99.90;;;;;;4978591;28;20223;-60
2023/11/16 12:47:47;;;;;;;1.33;0.87;;;9.20;99.90;;;;;;4971047;28;20211;-60
2023/11/16 12:50:16;;;;;;;1.80;0.90;;;9.30;99.90;;;;;;4971146;28;20234;-60
2023/11/16 12:52:43;;;;;;;1.20;1.10;;;9.40;99.90;;;;;;4975985;28;20209;-60
2023/11/16 12:55:12;;;;;;;1.60;1.50;;;9.20;99.90;;;;;;4990068;28;20229;-60
2023/11/16 12:57:41;;;;;;;2.30;1.30;;;9.00;99.90;;;;;;4989313;28;20288;-60
2023/11/16 13:00:10;;;;;;;6.03;2.23;;;8.90;99.90;;;;;;4981549;28;20282;-60
2023/11/16 13:02:37;;;;;;;2.40;1.20;;;8.80;99.90;;;;;;4973625;28;20226;-59
2023/11/16 13:05:06;;;;;;;0.93;0.93;;;8.70;99.90;;;;;;4970634;28;20702;-60